Time;durP1;ratioP1;P1;durP2;ratioP2;P2;SDS_P1;SDS_P2;PMS_P1;PMS_P2;Temp;Humidity;BMP_temperature;BMP_pressure;BME280_temperature;BME280_humidity;BME280_pressure;Samples;Min_cycle;Max_cycle;Signal;HPM_P1;HPM_P2
2022/10/08 00:04:14;;;;;;;4.95;3.03;;;;;;;;;;10284546;28;20094;-73
2022/10/08 00:09:14;;;;;;;7.00;3.75;;;;;;;;;;10282529;28;20025;-74
2022/10/08 00:14:14;;;;;;;10.10;4.43;;;;;;;;;;10283281;28;20337;-78
2022/10/08 00:19:15;;;;;;;9.83;4.40;;;;;;;;;;10288463;28;20070;-77
2022/10/08 00:24:16;;;;;;;8.02;4.70;;;;;;;;;;10285529;28;20015;-74
2022/10/08 00:29:18;;;;;;;9.82;4.70;;;;;;;;;;10282092;28;20046;-73
2022/10/08 00:34:21;;;;;;;12.75;5.65;;;;;;;;;;10282429;28;20031;-74
2022/10/08 00:39:22;;;;;;;11.43;4.47;;;;;;;;;;10265328;28;20022;-77
2022/10/08 00:44:41;;;;;;;12.02;5.75;;;;;;;;;;10283895;28;20034;-74
2022/10/08 00:49:41;;;;;;;;;;;;;;;;;;10282696;28;20469;-77
2022/10/08 00:54:42;;;;;;;14.93;5.20;;;;;;;;;;10281933;28;19906;-74
2022/10/08 00:59:42;;;;;;;8.45;4.78;;;;;;;;;;10265107;28;20761;-73
2022/10/08 01:04:43;;;;;;;9.43;5.05;;;;;;;;;;10266383;28;20021;-74
2022/10/08 01:10:02;;;;;;;14.80;5.85;;;;;;;;;;10264530;28;20030;-73
2022/10/08 01:15:19;;;;;;;14.68;6.75;;;;;;;;;;10282816;28;20019;-76
2022/10/08 01:20:25;;;;;;;12.77;6.50;;;;;;;;;;10279194;28;20065;-76
2022/10/08 01:25:31;;;;;;;9.20;5.07;;;;;;;;;;10296340;28;20054;-74
2022/10/08 01:30:32;;;;;;;12.57;4.53;;;;;;;;;;10279841;28;20117;-76
2022/10/08 01:35:33;;;;;;;10.30;3.85;;;;;;;;;;10280931;28;20428;-78
2022/10/08 01:40:35;;;;;;;13.65;4.47;;;;;;;;;;10280135;28;20019;-74
2022/10/08 01:45:37;;;;;;;8.45;3.85;;;;;;;;;;10281794;28;20030;-80
2022/10/08 01:50:47;;;;;;;16.80;4.00;;;;;;;;;;10279356;28;20054;-75
2022/10/08 01:55:49;;;;;;;5.47;3.10;;;;;;;;;;10295611;28;20089;-77
2022/10/08 02:00:52;;;;;;;8.10;3.72;;;;;;;;;;10278821;28;20023;-74
2022/10/08 02:05:53;;;;;;;7.35;3.88;;;;;;;;;;10278429;28;20018;-74
2022/10/08 02:10:53;;;;;;;6.20;4.25;;;;;;;;;;10278285;28;20042;-76
2022/10/08 02:16:04;;;;;;;7.43;3.60;;;;;;;;;;10279359;28;20109;-74
2022/10/08 02:21:11;;;;;;;6.53;3.88;;;;;;;;;;10293547;28;20015;-79
2022/10/08 02:26:25;;;;;;;7.40;3.50;;;;;;;;;;10275484;28;20043;-76
2022/10/08 02:31:26;;;;;;;8.95;4.20;;;;;;;;;;10276206;28;20078;-75
2022/10/08 02:36:28;;;;;;;10.02;4.45;;;;;;;;;;10278141;28;20081;-79
2022/10/08 02:41:41;;;;;;;13.35;5.60;;;;;;;;;;10278767;28;20031;-80
2022/10/08 02:46:43;;;;;;;14.02;5.75;;;;;;;;;;10294245;28;20031;-79
2022/10/08 02:51:50;;;;;;;11.13;4.38;;;;;;;;;;10278038;28;20023;-78
2022/10/08 02:56:54;;;;;;;15.65;3.50;;;;;;;;;;10274927;28;20019;-79
2022/10/08 03:02:01;;;;;;;5.95;3.55;;;;;;;;;;10277895;28;20022;-77
2022/10/08 03:07:02;;;;;;;5.13;3.10;;;;;;;;;;10282086;28;20405;-77
2022/10/08 03:12:03;;;;;;;5.97;3.80;;;;;;;;;;10279148;28;20449;-78
2022/10/08 03:17:04;;;;;;;5.93;3.33;;;;;;;;;;10280910;28;20069;-75
2022/10/08 03:22:06;;;;;;;4.20;2.90;;;;;;;;;;10269572;28;20026;-79
2022/10/08 03:27:06;;;;;;;5.28;3.40;;;;;;;;;;10284907;28;20149;-78
2022/10/08 03:32:07;;;;;;;6.25;4.13;;;;;;;;;;10285277;28;20174;-81
2022/10/08 03:37:07;;;;;;;8.98;4.35;;;;;;;;;;10284568;28;20047;-79
2022/10/08 03:42:08;;;;;;;6.15;3.95;;;;;;;;;;10285683;28;20118;-77
2022/10/08 03:47:08;;;;;;;10.77;5.55;;;;;;;;;;10284165;28;20023;-78
2022/10/08 03:52:08;;;;;;;15.65;5.65;;;;;;;;;;10284186;28;20039;-79
2022/10/08 03:57:08;;;;;;;9.32;5.40;;;;;;;;;;10283774;28;20022;-81
2022/10/08 04:02:08;;;;;;;16.33;5.53;;;;;;;;;;10287091;28;20109;-75
2022/10/08 04:07:09;;;;;;;10.65;6.05;;;;;;;;;;10283150;28;20038;-75
2022/10/08 04:12:09;;;;;;;12.65;6.00;;;;;;;;;;10281942;28;20421;-78
2022/10/08 04:17:09;;;;;;;10.82;5.72;;;;;;;;;;10284440;28;20482;-77
2022/10/08 04:22:09;;;;;;;9.90;5.53;;;;;;;;;;10282990;28;20596;-74
2022/10/08 04:27:10;;;;;;;15.13;5.32;;;;;;;;;;10282120;28;20058;-77
2022/10/08 04:32:10;;;;;;;10.63;4.70;;;;;;;;;;10281570;28;20030;-74
2022/10/08 04:37:10;;;;;;;12.68;6.00;;;;;;;;;;10282956;28;20027;-76
2022/10/08 04:42:10;;;;;;;11.77;5.30;;;;;;;;;;10283094;28;20173;-74
2022/10/08 04:47:10;;;;;;;11.98;5.47;;;;;;;;;;10281585;28;20882;-78
2022/10/08 04:52:12;;;;;;;12.95;4.93;;;;;;;;;;10281626;28;20482;-78
2022/10/08 04:57:12;;;;;;;11.27;5.03;;;;;;;;;;10280770;28;20018;-78
2022/10/08 05:02:13;;;;;;;15.52;5.53;;;;;;;;;;10281697;28;20026;-79
2022/10/08 05:07:13;;;;;;;9.02;5.13;;;;;;;;;;10280654;28;20026;-80
2022/10/08 05:12:13;;;;;;;11.65;5.25;;;;;;;;;;10280663;28;20265;-73
2022/10/08 05:17:13;;;;;;;14.70;6.15;;;;;;;;;;10280734;28;20030;-78
2022/10/08 05:22:14;;;;;;;15.63;8.18;;;;;;;;;;10281963;28;20034;-77
2022/10/08 05:27:14;;;;;;;13.90;4.78;;;;;;;;;;10322526;23;20062;-76
2022/10/08 05:32:14;;;;;;;7.70;5.18;;;;;;;;;;10302310;28;20117;-78
2022/10/08 05:37:15;;;;;;;13.90;6.47;;;;;;;;;;10300998;28;20055;-74
2022/10/08 05:42:15;;;;;;;10.05;5.00;;;;;;;;;;10302356;28;20795;-78
2022/10/08 05:47:15;;;;;;;11.82;6.30;;;;;;;;;;10293149;28;20394;-78
2022/10/08 05:52:15;;;;;;;6.85;4.47;;;;;;;;;;10316649;28;20465;-76
2022/10/08 05:57:16;;;;;;;8.00;4.95;;;;;;;;;;10322723;28;20605;-75
2022/10/08 06:02:16;;;;;;;8.40;4.65;;;;;;;;;;10298694;28;20022;-79
2022/10/08 06:07:16;;;;;;;9.00;4.97;;;;;;;;;;10288238;28;20612;-78
2022/10/08 06:12:16;;;;;;;7.35;4.68;;;;;;;;;;10293463;28;20425;-80
2022/10/08 06:17:17;;;;;;;10.80;4.90;;;;;;;;;;10289914;28;20109;-80
2022/10/08 06:22:17;;;;;;;9.80;4.85;;;;;;;;;;10286546;28;20023;-73
2022/10/08 06:27:17;;;;;;;13.88;5.28;;;;;;;;;;10294012;28;20058;-77
2022/10/08 06:32:17;;;;;;;14.75;5.82;;;;;;;;;;10293011;28;20459;-81
2022/10/08 06:37:17;;;;;;;24.60;5.75;;;;;;;;;;10278930;28;20583;-75
2022/10/08 06:42:18;;;;;;;8.55;4.57;;;;;;;;;;10289407;28;20038;-77
2022/10/08 06:47:19;;;;;;;7.32;4.35;;;;;;;;;;10288443;28;20073;-80
2022/10/08 06:52:19;;;;;;;16.35;4.70;;;;;;;;;;10286006;28;20027;-74
2022/10/08 06:57:19;;;;;;;17.40;5.65;;;;;;;;;;10293049;28;20031;-75
2022/10/08 07:02:20;;;;;;;18.23;6.38;;;;;;;;;;10308454;28;20027;-75
2022/10/08 07:07:20;;;;;;;14.75;5.65;;;;;;;;;;10295675;28;20038;-78
2022/10/08 07:12:20;;;;;;;17.98;6.53;;;;;;;;;;10322075;28;20030;-75
2022/10/08 07:17:21;;;;;;;12.48;6.65;;;;;;;;;;10287722;28;20031;-74
2022/10/08 07:22:21;;;;;;;16.17;6.75;;;;;;;;;;10295488;28;20061;-79
2022/10/08 07:27:22;;;;;;;18.63;7.25;;;;;;;;;;10296334;28;20050;-76
2022/10/08 07:32:22;;;;;;;11.05;6.18;;;;;;;;;;10295724;28;20026;-78
2022/10/08 07:37:22;;;;;;;14.02;6.15;;;;;;;;;;10293586;28;20030;-75
2022/10/08 07:42:22;;;;;;;23.42;6.80;;;;;;;;;;10298423;28;20117;-80
2022/10/08 07:47:23;;;;;;;15.40;6.63;;;;;;;;;;10299874;28;20361;-75
2022/10/08 07:52:23;;;;;;;17.70;5.85;;;;;;;;;;10302697;28;20037;-74
2022/10/08 07:57:23;;;;;;;16.27;7.65;;;;;;;;;;10302188;28;20026;-74
2022/10/08 08:02:23;;;;;;;11.37;5.87;;;;;;;;;;10299590;28;20448;-78
2022/10/08 08:07:24;;;;;;;11.82;6.63;;;;;;;;;;10301884;28;20646;-83
2022/10/08 08:12:24;;;;;;;14.27;6.40;;;;;;;;;;10297490;28;20023;-81
2022/10/08 08:17:24;;;;;;;13.85;5.60;;;;;;;;;;10299620;28;20133;-74
2022/10/08 08:22:24;;;;;;;10.98;4.90;;;;;;;;;;10303773;28;20022;-78
2022/10/08 08:27:25;;;;;;;10.10;4.47;;;;;;;;;;10327332;28;20062;-75
2022/10/08 08:32:25;;;;;;;17.80;4.72;;;;;;;;;;10326365;28;20023;-75
2022/10/08 08:37:26;;;;;;;8.88;4.60;;;;;;;;;;10314739;28;20027;-78
2022/10/08 08:43:01;;;;;;;7.20;4.50;;;;;;;;;;10304200;28;20031;-75
2022/10/08 08:48:11;;;;;;;23.17;7.40;;;;;;;;;;10210221;28;20060;-76
2022/10/08 08:53:11;;;;;;;14.15;3.70;;;;;;;;;;10299199;28;20018;-74
2022/10/08 08:58:17;;;;;;;21.05;4.32;;;;;;;;;;10301078;28;20027;-74
2022/10/08 09:03:20;;;;;;;9.18;4.30;;;;;;;;;;10300544;28;20177;-75
2022/10/08 09:08:29;;;;;;;16.23;3.45;;;;;;;;;;10298439;28;20026;-75
2022/10/08 09:13:43;;;;;;;10.35;4.72;;;;;;;;;;10323211;28;20404;-77
2022/10/08 09:18:47;;;;;;;6.32;3.95;;;;;;;;;;10297711;28;20031;-75
2022/10/08 09:23:47;;;;;;;9.35;4.72;;;;;;;;;;10296234;28;20540;-78
2022/10/08 09:28:52;;;;;;;8.30;4.68;;;;;;;;;;10298725;28;20011;-75
2022/10/08 09:34:14;;;;;;;11.25;4.00;;;;;;;;;;10301254;28;20022;-76
2022/10/08 09:39:20;;;;;;;6.68;3.80;;;;;;;;;;10313438;28;20485;-75
2022/10/08 09:44:21;;;;;;;8.82;3.60;;;;;;;;;;10299705;28;20120;-75
2022/10/08 09:49:31;;;;;;;12.23;5.40;;;;;;;;;;10299242;28;20531;-76
2022/10/08 09:54:36;;;;;;;8.77;3.95;;;;;;;;;;10298429;28;20404;-74
2022/10/08 09:59:39;;;;;;;10.98;3.80;;;;;;;;;;10321475;28;20011;-76
2022/10/08 10:04:40;;;;;;;7.78;2.65;;;;;;;;;;10297473;28;20092;-73
2022/10/08 10:09:44;;;;;;;5.95;2.28;;;;;;;;;;10321748;28;20134;-76
2022/10/08 10:14:56;;;;;;;7.88;2.05;;;;;;;;;;10295562;28;20054;-75
2022/10/08 10:19:59;;;;;;;3.95;2.33;;;;;;;;;;10297770;28;20019;-77
2022/10/08 10:25:07;;;;;;;2.08;1.50;;;;;;;;;;10293692;28;20141;-74
2022/10/08 10:30:07;;;;;;;2.75;1.95;;;;;;;;;;10304554;28;20014;-75
2022/10/08 10:35:14;;;;;;;6.35;1.98;;;;;;;;;;10318062;28;20438;-75
2022/10/08 10:40:14;;;;;;;5.40;1.77;;;;;;;;;;10331201;28;20023;-75
2022/10/08 10:45:14;;;;;;;3.00;1.70;;;;;;;;;;10306707;28;20038;-75
2022/10/08 10:50:15;;;;;;;3.17;1.97;;;;;;;;;;10304952;28;20500;-76
2022/10/08 10:55:19;;;;;;;5.78;2.00;;;;;;;;;;10303100;28;20803;-75
2022/10/08 11:00:26;;;;;;;5.30;2.10;;;;;;;;;;10305049;28;20030;-75
2022/10/08 11:05:29;;;;;;;4.57;2.08;;;;;;;;;;10318479;28;20121;-74
2022/10/08 11:10:31;;;;;;;9.63;2.08;;;;;;;;;;10305494;28;20027;-75
2022/10/08 11:15:35;;;;;;;3.47;2.28;;;;;;;;;;10306188;28;20098;-76
2022/10/08 11:20:44;;;;;;;5.22;2.40;;;;;;;;;;10304165;28;20022;-75
2022/10/08 11:25:45;;;;;;;5.32;2.83;;;;;;;;;;10303154;28;20505;-74
2022/10/08 11:30:56;;;;;;;3.17;2.17;;;;;;;;;;10327496;28;20056;-74
2022/10/08 11:36:02;;;;;;;4.32;2.28;;;;;;;;;;10302940;28;20033;-76
2022/10/08 11:41:05;;;;;;;4.50;2.78;;;;;;;;;;10328063;28;20033;-76
2022/10/08 11:46:12;;;;;;;5.90;3.80;;;;;;;;;;10329226;28;20084;-76
2022/10/08 11:51:18;;;;;;;7.40;2.45;;;;;;;;;;10316864;28;20624;-76
2022/10/08 11:56:19;;;;;;;6.00;2.70;;;;;;;;;;10303092;28;20054;-74
2022/10/08 12:01:19;;;;;;;6.03;3.13;;;;;;;;;;10302001;28;20121;-76
2022/10/08 12:06:28;;;;;;;9.83;3.57;;;;;;;;;;10304829;28;20032;-76
2022/10/08 12:11:28;;;;;;;6.30;2.88;;;;;;;;;;10296671;28;20079;-76
2022/10/08 12:16:49;;;;;;;3.90;2.53;;;;;;;;;;10301865;28;20030;-76
2022/10/08 12:21:49;;;;;;;6.63;2.90;;;;;;;;;;10309876;28;20062;-73
2022/10/08 12:27:08;;;;;;;15.07;2.75;;;;;;;;;;10290759;28;20149;-74
2022/10/08 12:32:08;;;;;;;5.32;2.95;;;;;;;;;;10300973;28;20062;-75
2022/10/08 12:37:16;;;;;;;5.88;3.50;;;;;;;;;;10296438;28;20125;-77
2022/10/08 12:42:21;;;;;;;5.45;2.78;;;;;;;;;;10283676;28;20151;-75
2022/10/08 12:47:21;;;;;;;5.60;3.20;;;;;;;;;;10289900;28;20117;-74
2022/10/08 12:52:22;;;;;;;4.97;2.92;;;;;;;;;;10294731;28;20032;-74
2022/10/08 12:57:38;;;;;;;8.60;2.45;;;;;;;;;;10297659;28;20108;-75
2022/10/08 13:02:40;;;;;;;7.38;3.10;;;;;;;;;;10296564;28;20034;-75
2022/10/08 13:07:40;;;;;;;7.20;3.40;;;;;;;;;;10295767;28;20030;-76
2022/10/08 13:12:42;;;;;;;3.78;2.83;;;;;;;;;;10298473;28;20555;-75
2022/10/08 13:17:42;;;;;;;10.25;3.88;;;;;;;;;;10295749;28;20110;-76
2022/10/08 13:22:43;;;;;;;12.38;4.10;;;;;;;;;;10293770;28;20034;-75
2022/10/08 13:27:43;;;;;;;3.80;2.95;;;;;;;;;;10295945;28;20054;-80
2022/10/08 13:32:44;;;;;;;7.53;3.47;;;;;;;;;;10294122;28;20114;-75
2022/10/08 13:37:50;;;;;;;3.60;2.63;;;;;;;;;;10277956;28;20033;-75
2022/10/08 13:42:51;;;;;;;10.43;2.85;;;;;;;;;;10291014;28;20026;-74
2022/10/08 13:47:52;;;;;;;8.75;2.05;;;;;;;;;;10292780;28;20023;-75
2022/10/08 13:52:54;;;;;;;11.27;3.97;;;;;;;;;;10294682;28;20034;-75
2022/10/08 13:57:55;;;;;;;2.95;1.77;;;;;;;;;;10293389;28;20386;-74
2022/10/08 14:02:55;;;;;;;9.18;2.05;;;;;;;;;;10291151;28;20030;-75
2022/10/08 14:07:56;;;;;;;3.05;2.30;;;;;;;;;;10295659;28;20118;-77
2022/10/08 14:12:57;;;;;;;4.88;2.95;;;;;;;;;;10291913;28;20093;-76
2022/10/08 14:17:57;;;;;;;3.53;2.70;;;;;;;;;;10294950;28;20121;-76
2022/10/08 14:22:57;;;;;;;2.63;1.70;;;;;;;;;;10294090;28;20038;-75
2022/10/08 14:27:58;;;;;;;8.00;3.05;;;;;;;;;;10297327;28;20047;-75
2022/10/08 14:32:58;;;;;;;6.50;2.58;;;;;;;;;;10295858;28;20068;-76
2022/10/08 14:37:58;;;;;;;9.77;3.28;;;;;;;;;;10293600;28;20145;-75
2022/10/08 14:42:59;;;;;;;9.00;3.20;;;;;;;;;;10292636;28;20034;-75
2022/10/08 14:47:59;;;;;;;7.70;3.25;;;;;;;;;;10293219;28;20022;-75
2022/10/08 14:52:59;;;;;;;7.75;3.58;;;;;;;;;;10293312;28;20610;-76
2022/10/08 14:57:59;;;;;;;4.63;3.35;;;;;;;;;;10289719;28;20061;-76
2022/10/08 15:03:00;;;;;;;8.57;4.38;;;;;;;;;;10284484;28;20054;-79
2022/10/08 15:08:00;;;;;;;11.67;4.47;;;;;;;;;;10292428;28;20033;-75
2022/10/08 15:13:00;;;;;;;8.38;4.18;;;;;;;;;;10294221;28;20401;-74
2022/10/08 15:18:00;;;;;;;10.40;4.78;;;;;;;;;;10298317;28;20035;-79
2022/10/08 15:23:01;;;;;;;10.48;4.65;;;;;;;;;;10299088;28;20530;-78
2022/10/08 15:28:01;;;;;;;7.75;4.50;;;;;;;;;;10295766;28;20042;-75
2022/10/08 15:33:02;;;;;;;13.35;5.18;;;;;;;;;;10277040;28;20066;-80
2022/10/08 15:38:03;;;;;;;8.57;4.40;;;;;;;;;;10296157;28;20030;-75
2022/10/08 15:43:03;;;;;;;9.85;4.22;;;;;;;;;;10297455;28;20032;-77
2022/10/08 15:48:03;;;;;;;19.02;5.32;;;;;;;;;;10293627;28;20066;-79
2022/10/08 15:53:04;;;;;;;15.82;4.72;;;;;;;;;;10297272;28;20113;-78
2022/10/08 15:58:04;;;;;;;15.57;5.53;;;;;;;;;;10319813;28;20026;-80
2022/10/08 16:03:05;;;;;;;13.57;4.60;;;;;;;;;;10283926;28;20034;-80
2022/10/08 16:08:08;;;;;;;10.30;4.93;;;;;;;;;;10294286;28;20084;-79
2022/10/08 16:13:13;;;;;;;20.73;5.18;;;;;;;;;;10298488;28;20033;-80
2022/10/08 16:18:14;;;;;;;15.00;6.10;;;;;;;;;;10311718;28;20030;-75
2022/10/08 16:23:14;;;;;;;15.70;6.07;;;;;;;;;;10280178;28;20074;-77
2022/10/08 16:28:15;;;;;;;12.05;5.75;;;;;;;;;;10293820;28;20403;-77
2022/10/08 16:33:15;;;;;;;15.38;7.18;;;;;;;;;;10301297;28;20034;-80
2022/10/08 16:38:15;;;;;;;22.77;8.85;;;;;;;;;;10292104;28;20058;-77
2022/10/08 16:43:16;;;;;;;29.02;9.52;;;;;;;;;;10284608;28;20018;-78
2022/10/08 16:48:16;;;;;;;16.73;7.88;;;;;;;;;;10294164;28;20692;-76
2022/10/08 16:53:16;;;;;;;25.27;11.98;;;;;;;;;;10298018;28;20103;-78
2022/10/08 16:58:16;;;;;;;20.10;9.90;;;;;;;;;;10294196;28;20027;-75
2022/10/08 17:03:17;;;;;;;27.73;8.93;;;;;;;;;;10294879;28;20038;-77
2022/10/08 17:08:17;;;;;;;20.13;8.00;;;;;;;;;;10294367;28;20020;-74
2022/10/08 17:13:17;;;;;;;27.63;9.60;;;;;;;;;;10296487;28;20031;-76
2022/10/08 17:18:17;;;;;;;20.85;11.15;;;;;;;;;;10295143;28;20030;-72
2022/10/08 17:23:19;;;;;;;20.40;9.13;;;;;;;;;;10274686;28;20053;-76
2022/10/08 17:28:21;;;;;;;22.23;8.52;;;;;;;;;;10294109;28;20088;-77
2022/10/08 17:33:21;;;;;;;24.77;9.82;;;;;;;;;;10297391;28;20576;-74
2022/10/08 17:38:22;;;;;;;28.00;10.97;;;;;;;;;;10294931;28;20173;-73
2022/10/08 17:43:22;;;;;;;29.70;10.73;;;;;;;;;;10295571;28;20042;-74
2022/10/08 17:48:22;;;;;;;22.30;8.57;;;;;;;;;;10296061;28;20045;-74
2022/10/08 17:53:22;;;;;;;16.13;8.43;;;;;;;;;;10315098;28;20030;-80
2022/10/08 17:58:23;;;;;;;18.70;8.48;;;;;;;;;;10294499;28;20029;-78
2022/10/08 18:03:23;;;;;;;21.63;7.28;;;;;;;;;;10295637;28;20034;-79
2022/10/08 18:08:23;;;;;;;22.08;7.30;;;;;;;;;;10293030;28;20102;-78
2022/10/08 18:13:24;;;;;;;25.42;8.68;;;;;;;;;;10295241;28;20136;-78
2022/10/08 18:18:24;;;;;;;17.75;7.95;;;;;;;;;;10292413;28;20046;-77
2022/10/08 18:23:26;;;;;;;16.23;8.07;;;;;;;;;;10280793;28;20042;-73
2022/10/08 18:28:26;;;;;;;22.58;9.05;;;;;;;;;;10280815;28;20046;-73
2022/10/08 18:33:29;;;;;;;22.73;8.77;;;;;;;;;;10287458;28;20026;-77
2022/10/08 18:38:29;;;;;;;31.85;8.93;;;;;;;;;;10283401;28;20030;-73
2022/10/08 18:43:29;;;;;;;21.50;8.65;;;;;;;;;;10283873;28;20026;-79
2022/10/08 18:48:30;;;;;;;19.95;9.05;;;;;;;;;;10284436;28;20027;-76
2022/10/08 18:53:31;;;;;;;15.88;7.20;;;;;;;;;;10308253;28;20405;-76
2022/10/08 18:58:32;;;;;;;23.52;9.15;;;;;;;;;;10297687;28;20428;-74
2022/10/08 19:03:32;;;;;;;18.27;9.43;;;;;;;;;;10295088;28;20034;-74
2022/10/08 19:08:32;;;;;;;20.50;10.23;;;;;;;;;;10298509;28;20222;-76
2022/10/08 19:13:32;;;;;;;18.05;8.52;;;;;;;;;;10301920;28;20461;-76
2022/10/08 19:18:33;;;;;;;16.25;8.63;;;;;;;;;;10296123;28;20078;-73
2022/10/08 19:23:33;;;;;;;16.23;8.35;;;;;;;;;;10299982;28;20041;-77
2022/10/08 19:28:35;;;;;;;16.93;6.63;;;;;;;;;;10298682;28;20019;-73
2022/10/08 19:33:36;;;;;;;20.42;7.93;;;;;;;;;;10300711;28;20027;-73
2022/10/08 19:38:36;;;;;;;22.50;11.77;;;;;;;;;;10323517;28;20031;-74
2022/10/08 19:43:36;;;;;;;17.70;6.90;;;;;;;;;;10299604;28;20034;-74
2022/10/08 19:48:37;;;;;;;14.35;7.32;;;;;;;;;;10319008;28;20023;-73
2022/10/08 19:53:37;;;;;;;18.95;7.88;;;;;;;;;;10273609;28;20492;-75
2022/10/08 19:58:39;;;;;;;19.90;8.57;;;;;;;;;;10290592;28;20038;-75
2022/10/08 20:03:40;;;;;;;13.90;8.05;;;;;;;;;;10294666;28;20042;-77
2022/10/08 20:08:40;;;;;;;13.52;7.78;;;;;;;;;;10300395;28;20019;-74
2022/10/08 20:13:41;;;;;;;17.17;8.67;;;;;;;;;;10295016;28;20014;-72
2022/10/08 20:18:46;;;;;;;12.40;6.90;;;;;;;;;;10294848;28;20427;-75
2022/10/08 20:23:46;;;;;;;20.48;7.55;;;;;;;;;;10298418;28;20353;-73
2022/10/08 20:28:50;;;;;;;9.82;6.20;;;;;;;;;;10309022;28;20027;-77
2022/10/08 20:33:58;;;;;;;13.27;6.30;;;;;;;;;;10273299;28;20110;-78
2022/10/08 20:38:58;;;;;;;19.35;6.30;;;;;;;;;;10287721;28;20445;-77
2022/10/08 20:43:59;;;;;;;19.80;6.80;;;;;;;;;;10300348;28;20076;-74
2022/10/08 20:49:00;;;;;;;9.65;5.40;;;;;;;;;;10294352;28;20023;-76
2022/10/08 20:54:01;;;;;;;9.48;6.07;;;;;;;;;;10285615;28;20144;-76
2022/10/08 20:59:02;;;;;;;8.05;4.90;;;;;;;;;;10300734;28;20033;-76
2022/10/08 21:04:02;;;;;;;13.27;6.00;;;;;;;;;;10301944;28;20029;-73
2022/10/08 21:09:02;;;;;;;8.02;5.63;;;;;;;;;;10301465;28;20053;-74
2022/10/08 21:14:05;;;;;;;11.98;5.60;;;;;;;;;;10298404;28;20129;-75
2022/10/08 21:19:07;;;;;;;18.17;9.32;;;;;;;;;;10295605;28;20026;-74
2022/10/08 21:24:08;;;;;;;8.43;5.78;;;;;;;;;;10300078;28;20043;-75
2022/10/08 21:29:09;;;;;;;11.95;5.53;;;;;;;;;;10299027;28;20027;-74
2022/10/08 21:34:11;;;;;;;12.82;5.82;;;;;;;;;;10299214;28;20022;-74
2022/10/08 21:39:13;;;;;;;14.07;6.15;;;;;;;;;;10297349;28;20117;-75
2022/10/08 21:44:14;;;;;;;14.05;5.75;;;;;;;;;;10297234;28;20113;-75
2022/10/08 21:49:15;;;;;;;29.67;26.10;;;;;;;;;;10317576;28;20485;-74
2022/10/08 21:54:15;;;;;;;10.68;4.95;;;;;;;;;;10301490;28;20402;-75
2022/10/08 21:59:16;;;;;;;8.48;4.70;;;;;;;;;;10297179;28;20038;-75
2022/10/08 22:04:17;;;;;;;11.15;5.75;;;;;;;;;;10324382;28;20181;-74
2022/10/08 22:09:19;;;;;;;13.27;6.38;;;;;;;;;;10298847;28;20123;-75
2022/10/08 22:14:20;;;;;;;14.57;7.30;;;;;;;;;;10309096;28;20022;-75
2022/10/08 22:19:20;;;;;;;11.43;6.28;;;;;;;;;;10296351;28;20089;-74
2022/10/08 22:24:20;;;;;;;12.15;7.47;;;;;;;;;;10305238;28;20432;-75
2022/10/08 22:29:20;;;;;;;13.45;6.50;;;;;;;;;;10307595;28;20034;-79
2022/10/08 22:34:21;;;;;;;14.90;7.50;;;;;;;;;;10307728;28;20039;-75
2022/10/08 22:39:21;;;;;;;16.90;8.68;;;;;;;;;;10307537;28;21981;-75
2022/10/08 22:44:21;;;;;;;13.68;7.25;;;;;;;;;;10308774;28;20457;-74
2022/10/08 22:49:21;;;;;;;15.20;8.07;;;;;;;;;;10329842;28;20525;-75
2022/10/08 22:54:22;;;;;;;13.30;8.15;;;;;;;;;;10318922;28;20110;-75
2022/10/08 22:59:22;;;;;;;15.98;8.40;;;;;;;;;;10305396;28;20026;-77
2022/10/08 23:04:22;;;;;;;16.27;8.32;;;;;;;;;;10302054;28;20022;-74
2022/10/08 23:09:22;;;;;;;14.27;8.65;;;;;;;;;;10304440;28;20038;-75
2022/10/08 23:14:23;;;;;;;15.83;7.70;;;;;;;;;;10298904;28;20105;-74
2022/10/08 23:19:23;;;;;;;21.87;7.90;;;;;;;;;;10304994;28;20472;-75
2022/10/08 23:24:23;;;;;;;11.65;7.65;;;;;;;;;;10305654;28;20050;-73
2022/10/08 23:29:23;;;;;;;17.17;8.38;;;;;;;;;;10304973;28;20027;-76
2022/10/08 23:34:24;;;;;;;20.23;8.85;;;;;;;;;;10301349;28;20581;-73
2022/10/08 23:39:24;;;;;;;14.00;8.73;;;;;;;;;;10304463;28;20064;-74
2022/10/08 23:44:24;;;;;;;14.02;7.68;;;;;;;;;;10305660;28;20102;-74
2022/10/08 23:49:24;;;;;;;17.40;8.65;;;;;;;;;;10303267;28;20022;-73
2022/10/08 23:54:25;;;;;;;23.30;16.35;;;;;;;;;;10305004;28;20568;-78
2022/10/08 23:59:25;;;;;;;13.07;7.75;;;;;;;;;;10303595;28;20034;-77
